map of XMJ home
XMJ - Airport
Location
City:  Mont de Marsan, Aquitaine, France
ICAO:LFBM
IATA:XMJ

Details
Type:Airport (Aerodrome, Airfield)
Use:Military
Latitude:4354'41"N (43.911389)
Longitude:030'36"W (-0.509999)
Elevation:203 ft (62 m)
Variation:0.34E (WMM2015v2 magnetic declination)
0.16 annual change
Runways:1
Longest:11821 × 148 ft (3603 × 45 m)

Time
Time Zone:UTC+1 (DST+2)
Local Time:

Weather
METAR:LFBM 041400Z AUTO VRB03KT 9999 ///TCU 08/M03 Q1027 BECMG NSC
TAF:LFBM 041400Z 0415/0515 14005KT CAVOK
BECMG 0415/0417 4000 RA BKN020
TEMPO 0419/0423 BKN007
BECMG 0423/0502 2500 RADZ OVC003
BECMG 0510/0512 9999 NSW BKN010

Related Locations
Nearby:
Farthest:CHT: 12238 mi / 19695 km
Waitangi [Tuuta], CIT, NZ

Find:

   beyond  
but within

Other Information
Maps:
NOTAMs:
Links:
Sources:

  
  • flag of France
  • flag of Aquitaine
  

Sectional Chart

Flight Planning
at skyvector.com

Satellite Image

Google Maps Satellite view

 

Copyright © 2004-2019 Karl L. Swartz. All rights reserved.
The Great Circle Mapper name and logo are trademarks of the Great Circle Mapper.
All other trademarks mentioned herein belong to their respective owners.
Please see credits for attibutions and further copyright information.

  Follow gcmap on Facebook Follow gcmap on Twitter GCmap on LinkedIn

hCard Microformat

Geo Microformat